Babson Park, Massachusetts
Current Conditions -  °F | °C
As of 7:22 PM on Saturday 20 Dec 2014 (Local Time) from KOWD Reporting Station
Light Snow Light Snow  
Wind Chill: -2°   Ceiling: 2700
Heat Index:   Visibility: 2.5mi
Dew Point: -1°   Wind: 5mph
Humidity: 89%   Direction: 20°NNE
Pressure: 30.3"   Gusts: NA
Location:  42.3°N, 71.26°W
Report Text: KOWD 210022Z 02004KT 2 1/2SM -SN BR SCT014 OVC027 01/M01 A3030 RMK AO2 SNB2355 P0000 T00061011
Loading
Personal Weather Stations






























Interactive Weather Map New forecast layout! Learn more

10-Day Weather Forecast

Advertisements
Track Severe Weather on mobile